createdAt,value
2022-12-11T00:00:59.280Z,207.85
2022-12-11T00:03:29.642Z,600.75
2022-12-11T00:05:59.692Z,1056.40
2022-12-11T00:08:29.626Z,1031.22
2022-12-11T00:10:59.664Z,1121.32
2022-12-11T11:56:13.840Z,22.20
2022-12-11T11:58:52.630Z,23.80
2022-12-11T12:01:23.723Z,22.88
2022-12-11T12:03:55.351Z,23.45
2022-12-11T12:06:36.974Z,23.40
2022-12-11T12:09:25.692Z,21.63
2022-12-11T12:12:28.593Z,26.42
2022-12-11T12:15:22.528Z,25.67
2022-12-11T12:18:14.477Z,24.45
2022-12-11T12:21:08.797Z,23.00
2022-12-11T12:23:41.917Z,19.63
2022-12-11T12:26:24.356Z,24.52
2022-12-11T12:29:12.761Z,22.30
2022-12-11T12:32:16.318Z,25.65
2022-12-11T12:35:04.245Z,20.40
2022-12-11T12:37:57.499Z,23.38
2022-12-11T12:40:42.151Z,24.90
2022-12-11T12:43:26.979Z,29.42
2022-12-11T12:46:07.906Z,21.25
2022-12-11T12:48:38.803Z,22.73
2022-12-11T12:51:09.483Z,25.27
2022-12-11T12:53:40.160Z,27.47
2022-12-11T12:56:11.231Z,26.03
2022-12-11T12:58:48.312Z,26.48
2022-12-11T13:01:23.062Z,28.30
2022-12-11T13:03:55.966Z,25.30
2022-12-11T13:06:45.770Z,25.67
2022-12-11T13:09:20.212Z,29.95
2022-12-11T13:11:55.734Z,26.73
2022-12-11T13:14:30.933Z,29.55
2022-12-11T13:17:28.840Z,30.23
2022-12-11T13:20:16.857Z,24.25
2022-12-11T13:23:19.156Z,27.17
2022-12-11T13:25:56.069Z,30.08
2022-12-11T13:28:50.355Z,32.28
2022-12-11T13:31:20.508Z,31.70
2022-12-11T13:33:58.218Z,29.95
2022-12-11T13:36:40.615Z,33.15
2022-12-11T13:39:49.093Z,32.03
2022-12-11T13:42:49.266Z,35.50
2022-12-11T13:45:46.785Z,36.05
2022-12-11T13:48:34.559Z,30.83
2022-12-11T13:51:05.640Z,35.15
2022-12-11T13:53:35.988Z,29.67
2022-12-11T13:56:16.739Z,29.98
2022-12-11T13:58:47.159Z,33.23
2022-12-11T14:01:25.146Z,32.50
2022-12-11T14:04:10.519Z,29.35
2022-12-11T14:06:42.385Z,31.15
2022-12-11T14:09:18.786Z,31.88
2022-12-11T14:11:55.094Z,28.95
2022-12-11T14:14:42.832Z,30.90
2022-12-11T14:17:17.537Z,29.40
2022-12-11T14:19:51.493Z,29.83
2022-12-11T14:22:28.360Z,29.20
2022-12-11T14:25:01.013Z,37.10
2022-12-11T14:27:31.793Z,28.15
2022-12-11T14:30:14.096Z,25.20
2022-12-11T14:32:47.483Z,29.17
2022-12-11T14:35:41.080Z,27.70
2022-12-11T14:38:22.368Z,26.25
2022-12-11T14:40:57.936Z,26.27
2022-12-11T14:43:39.648Z,27.60
2022-12-11T14:46:18.889Z,26.88
2022-12-11T14:49:00.561Z,27.02
2022-12-11T14:51:37.488Z,28.90
2022-12-11T14:54:10.354Z,28.48
2022-12-11T14:56:40.819Z,29.88
2022-12-11T14:59:29.987Z,27.13
2022-12-11T15:02:23.336Z,28.47
2022-12-11T15:05:22.569Z,31.10
2022-12-11T15:08:04.920Z,29.75
2022-12-11T15:10:40.140Z,29.65
2022-12-11T15:13:11.451Z,31.05
2022-12-11T15:15:50.830Z,30.35
2022-12-11T15:18:36.376Z,28.48
2022-12-11T15:21:11.662Z,26.05
2022-12-11T15:24:02.851Z,26.80
2022-12-11T15:26:39.995Z,30.85
2022-12-11T15:29:29.297Z,31.63
2022-12-11T15:32:05.277Z,30.48
2022-12-11T15:34:46.555Z,28.73
2022-12-11T15:39:50.806Z,29.08
2022-12-11T15:42:29.318Z,31.13
2022-12-11T15:45:00.174Z,30.75
2022-12-11T15:47:33.633Z,27.80
2022-12-11T15:50:15.166Z,29.92
2022-12-11T15:55:17.264Z,36.22
2022-12-11T15:57:57.479Z,30.52
2022-12-11T16:00:30.429Z,32.78
2022-12-11T16:03:00.964Z,27.52
2022-12-11T16:05:31.198Z,30.53
2022-12-11T16:08:01.754Z,29.42
2022-12-11T16:10:32.166Z,33.53
2022-12-11T16:13:02.423Z,30.73
2022-12-11T16:15:32.787Z,27.80
2022-12-11T16:18:18.572Z,29.23
2022-12-11T16:20:49.965Z,27.52
2022-12-11T16:23:20.286Z,29.58
2022-12-11T16:25:51.307Z,25.73
2022-12-11T16:28:23.496Z,29.65
2022-12-11T16:30:54.020Z,27.65
2022-12-11T16:33:24.134Z,28.85
2022-12-11T16:35:54.462Z,29.40
2022-12-11T16:38:25.099Z,31.05
2022-12-11T16:41:04.756Z,33.17
2022-12-11T16:43:35.664Z,27.63
2022-12-11T16:46:05.940Z,27.25
2022-12-11T16:48:36.255Z,31.27
2022-12-11T16:51:06.433Z,32.35
2022-12-11T16:53:36.530Z,37.00
2022-12-11T16:56:08.727Z,38.05
2022-12-11T16:58:38.862Z,38.25
2022-12-11T17:01:16.424Z,37.80
2022-12-11T17:03:47.054Z,34.75
2022-12-11T17:06:19.770Z,40.72
2022-12-11T17:08:50.807Z,34.53
2022-12-11T17:11:24.411Z,35.35
2022-12-11T17:13:59.333Z,31.15
2022-12-11T17:16:36.054Z,28.88
2022-12-11T17:19:09.504Z,34.78
2022-12-11T17:21:39.955Z,33.40
2022-12-11T17:24:12.571Z,29.75
2022-12-11T17:26:42.768Z,33.72
2022-12-11T17:29:14.388Z,36.10
2022-12-11T17:31:44.566Z,32.40
2022-12-11T17:34:14.807Z,31.67
2022-12-11T17:36:44.807Z,28.05
2022-12-11T17:39:15.019Z,31.60
2022-12-11T17:41:45.156Z,31.55
2022-12-11T17:44:15.122Z,34.95
2022-12-11T17:46:45.361Z,32.03
2022-12-11T17:49:15.494Z,29.50
2022-12-11T17:51:45.430Z,32.65
2022-12-11T17:54:15.500Z,31.55
2022-12-11T17:56:45.737Z,31.27
2022-12-11T17:59:16.264Z,28.57
2022-12-11T18:01:47.194Z,34.00
2022-12-11T18:04:17.259Z,34.15
2022-12-11T18:06:47.247Z,32.42
2022-12-11T18:09:17.235Z,35.40
2022-12-11T18:11:47.241Z,33.45
2022-12-11T18:14:17.743Z,30.45
2022-12-11T18:16:48.463Z,32.47
2022-12-11T18:19:19.285Z,32.90
2022-12-11T18:21:49.666Z,28.38
2022-12-11T18:24:19.864Z,30.20
2022-12-11T18:26:50.898Z,30.52
2022-12-11T18:29:21.022Z,33.08
2022-12-11T18:31:51.043Z,29.52
2022-12-11T18:34:21.100Z,31.15
2022-12-11T18:36:51.123Z,27.85
2022-12-11T18:39:21.314Z,28.52
2022-12-11T18:42:16.477Z,32.20
2022-12-11T18:44:41.917Z,26.88
2022-12-11T18:47:12.310Z,32.87
2022-12-11T18:49:42.462Z,27.10
2022-12-11T18:52:12.661Z,27.33
2022-12-11T18:54:43.392Z,28.23
2022-12-11T18:57:14.129Z,29.17
2022-12-11T18:59:44.332Z,29.57
2022-12-11T19:02:15.041Z,29.90
2022-12-11T19:04:45.202Z,28.87
2022-12-11T19:07:15.272Z,28.05
2022-12-11T19:09:48.226Z,27.95
2022-12-11T19:12:19.936Z,25.80
2022-12-11T19:14:50.007Z,30.00
2022-12-11T19:17:20.017Z,30.35
2022-12-11T19:19:50.199Z,29.08
2022-12-11T19:22:20.694Z,25.67
2022-12-11T19:24:50.838Z,30.08
2022-12-11T19:27:20.877Z,29.50
2022-12-11T19:29:50.891Z,31.52
2022-12-11T19:32:20.939Z,28.92
2022-12-11T19:34:50.926Z,30.52
2022-12-11T19:37:20.967Z,28.42
2022-12-11T19:39:51.105Z,30.27
2022-12-11T19:42:21.587Z,28.33
2022-12-11T19:44:51.758Z,26.73
2022-12-11T19:47:21.794Z,29.15
2022-12-11T19:49:53.093Z,29.05
2022-12-11T19:52:23.242Z,28.70
2022-12-11T19:54:53.270Z,32.58
2022-12-11T19:57:23.473Z,31.23
2022-12-11T19:59:57.204Z,26.05
2022-12-11T20:02:27.797Z,30.83
2022-12-11T20:04:58.087Z,27.95
2022-12-11T20:07:30.846Z,28.73
2022-12-11T20:10:02.622Z,29.17
2022-12-11T20:12:33.009Z,25.65
2022-12-11T20:15:03.387Z,30.93
2022-12-11T20:17:35.448Z,30.92
2022-12-11T20:20:06.478Z,27.17
2022-12-11T20:22:36.900Z,26.75
2022-12-11T20:25:07.232Z,29.40
2022-12-11T20:27:37.526Z,32.83
2022-12-11T20:30:09.208Z,25.00
2022-12-11T20:32:39.503Z,31.27
2022-12-11T20:35:10.615Z,29.83
2022-12-11T20:40:11.061Z,27.63
2022-12-11T20:42:41.584Z,29.13
2022-12-11T20:45:12.533Z,29.23
2022-12-11T20:47:42.906Z,27.10
2022-12-11T20:50:13.440Z,27.90
2022-12-11T20:52:43.622Z,28.42
2022-12-11T20:55:14.234Z,29.88
2022-12-11T20:57:45.400Z,25.23
2022-12-11T21:00:16.861Z,27.20
2022-12-11T21:05:16.758Z,30.95
2022-12-11T21:07:46.899Z,32.72
2022-12-11T21:10:17.308Z,28.10
2022-12-11T21:12:47.670Z,28.35
2022-12-11T21:15:17.989Z,31.05
2022-12-11T21:17:49.509Z,31.47
2022-12-11T21:20:19.890Z,26.75
2022-12-11T21:22:50.068Z,35.03
2022-12-11T21:25:20.212Z,28.77
2022-12-11T21:27:50.513Z,28.45
2022-12-11T21:30:20.827Z,24.87
2022-12-11T21:32:50.906Z,28.42
2022-12-11T21:35:20.921Z,30.83
2022-12-11T21:37:51.249Z,31.05
2022-12-11T21:40:21.466Z,28.77
2022-12-11T21:42:51.588Z,31.50
2022-12-11T21:48:11.966Z,30.65
2022-12-11T21:50:42.641Z,27.33
2022-12-11T21:53:12.801Z,27.48
2022-12-11T21:55:44.668Z,27.48
2022-12-11T21:58:14.802Z,27.15
2022-12-11T22:00:45.083Z,27.73
2022-12-11T22:03:15.199Z,30.88
2022-12-11T22:05:45.172Z,26.38
2022-12-11T22:08:15.216Z,29.48
2022-12-11T22:10:45.235Z,29.48
2022-12-11T22:13:15.270Z,29.35
2022-12-11T22:15:45.294Z,28.55
2022-12-11T22:18:15.275Z,27.42
2022-12-11T22:20:45.366Z,30.65
2022-12-11T22:23:15.570Z,30.38
2022-12-11T22:25:45.715Z,26.25
2022-12-11T22:28:16.729Z,27.30
2022-12-11T22:30:46.947Z,26.23
2022-12-11T22:33:18.692Z,22.52
2022-12-11T22:35:49.274Z,24.50
2022-12-11T22:38:19.376Z,23.83
2022-12-11T22:40:49.341Z,26.42
2022-12-11T22:43:20.861Z,24.90
2022-12-11T22:45:52.060Z,26.45
2022-12-11T22:48:22.353Z,21.35
2022-12-11T22:50:52.460Z,23.67
2022-12-11T22:53:22.494Z,24.00
2022-12-11T22:55:52.628Z,27.23
2022-12-11T22:58:22.797Z,23.60
2022-12-11T23:00:52.946Z,25.33
2022-12-11T23:03:23.128Z,23.75
2022-12-11T23:05:53.340Z,21.63
2022-12-11T23:08:24.444Z,25.33
2022-12-11T23:10:55.184Z,24.90
2022-12-11T23:13:25.409Z,23.83
2022-12-11T23:15:55.592Z,23.02
2022-12-11T23:18:25.547Z,22.83
2022-12-11T23:20:55.827Z,23.55
2022-12-11T23:23:26.046Z,24.05
2022-12-11T23:25:57.779Z,32.85
2022-12-11T23:28:28.068Z,37.10
2022-12-11T23:30:58.397Z,28.73
2022-12-11T23:33:29.116Z,27.30
2022-12-11T23:36:00.968Z,26.37
2022-12-11T23:38:31.344Z,27.30
2022-12-11T23:41:04.053Z,29.40
2022-12-11T23:43:36.419Z,28.63
2022-12-11T23:46:10.054Z,25.85
2022-12-11T23:48:40.419Z,26.90
2022-12-11T23:51:11.434Z,25.70
2022-12-11T23:53:41.680Z,30.23
2022-12-11T23:56:18.949Z,28.70
2022-12-11T23:58:49.498Z,26.02
